Time;durP1;ratioP1;P1;durP2;ratioP2;P2;SDS_P1;SDS_P2;PMS_P1;PMS_P2;Temp;Humidity;BMP_temperature;BMP_pressure;BME280_temperature;BME280_humidity;BME280_pressure;Samples;Min_cycle;Max_cycle;Signal;HPM_P1;HPM_P2
2022/06/19 00:02:02;;;;;;;1.80;1.50;;;;;;;17.30;64.55;99140.99;104466;1274;75593;-24
2022/06/19 00:04:29;;;;;;;3.40;1.80;;;;;;;17.41;63.36;99138.84;104740;1273;63267;-25
2022/06/19 00:06:57;;;;;;;2.60;1.60;;;;;;;17.31;63.47;99133.13;104641;1271;62941;-24
2022/06/19 00:09:25;;;;;;;2.70;1.70;;;;;;;17.18;63.60;99135.06;104585;1273;75318;-24
2022/06/19 00:11:55;;;;;;;3.30;2.10;;;;;;;17.06;63.78;99139.51;104625;1273;77113;-24
2022/06/19 00:14:23;;;;;;;2.60;1.60;;;;;;;16.93;64.78;99138.60;104773;1273;74429;-24
2022/06/19 00:16:50;;;;;;;1.90;1.50;;;;;;;16.79;65.96;99140.16;104800;1274;62267;-25
2022/06/19 00:19:18;;;;;;;3.10;2.10;;;;;;;16.67;66.39;99142.35;104976;1273;63303;-24
2022/06/19 00:21:46;;;;;;;2.60;1.70;;;;;;;16.53;66.39;99141.31;104724;1272;75489;-24
2022/06/19 00:24:13;;;;;;;4.80;1.90;;;;;;;16.39;66.19;99142.41;104770;1272;77105;-24
2022/06/19 00:26:41;;;;;;;2.90;1.40;;;;;;;16.29;66.81;99137.02;104607;1273;74181;-24
2022/06/19 00:29:08;;;;;;;2.60;1.60;;;;;;;16.74;66.53;99137.02;104765;1271;61092;-24
2022/06/19 00:31:35;;;;;;;2.70;1.50;;;;;;;17.32;64.47;99132.18;104642;1273;63002;-24
2022/06/19 00:34:03;;;;;;;2.90;1.70;;;;;;;17.48;63.50;99135.50;104653;1273;76623;-24
2022/06/19 00:36:30;;;;;;;3.50;1.70;;;;;;;17.40;63.73;99129.38;104635;1273;75936;-24
2022/06/19 00:38:58;;;;;;;4.70;1.90;;;;;;;17.22;63.91;99136.05;104676;1272;73731;-24
2022/06/19 00:41:25;;;;;;;2.40;1.80;;;;;;;17.05;64.64;99132.37;104619;1273;61781;-24
2022/06/19 00:43:54;;;;;;;2.60;1.80;;;;;;;16.88;64.61;99133.46;104679;1273;62020;-24
2022/06/19 00:46:44;;;;;;;3.70;1.90;;;;;;;16.69;65.32;99133.35;104603;1272;75567;-24
2022/06/19 00:49:24;;;;;;;2.90;1.90;;;;;;;16.46;66.18;99134.92;104603;1271;77422;-24
2022/06/19 00:52:09;;;;;;;3.10;2.20;;;;;;;16.34;66.66;99137.20;104682;1271;74489;-24
2022/06/19 00:54:46;;;;;;;3.40;1.80;;;;;;;16.23;67.41;99133.10;104675;1271;63389;-25
2022/06/19 00:57:19;;;;;;;2.20;1.70;;;;;;;16.19;67.48;99130.68;104727;1271;62958;-24
2022/06/19 00:59:51;;;;;;;5.80;1.70;;;;;;;16.81;65.98;99130.70;104528;1273;75843;-24
2022/06/19 01:02:19;;;;;;;3.30;1.70;;;;;;;17.44;63.91;99127.29;104667;1274;76092;-24
2022/06/19 01:04:51;;;;;;;2.90;1.80;;;;;;;17.55;63.12;99131.25;104684;1273;75382;-25
2022/06/19 01:07:21;;;;;;;3.60;1.80;;;;;;;17.45;63.49;99130.70;104633;1271;63079;-24
2022/06/19 01:09:50;;;;;;;4.70;2.20;;;;;;;17.31;63.57;99132.61;104699;1271;61247;-24
2022/06/19 01:12:19;;;;;;;2.60;2.00;;;;;;;17.12;63.89;99134.44;104556;1273;76569;-24
2022/06/19 01:14:46;;;;;;;3.50;2.10;;;;;;;16.94;64.46;99136.14;104557;1274;75181;-24
2022/06/19 01:17:14;;;;;;;3.00;1.80;;;;;;;16.79;64.62;99135.06;104589;1273;73622;-25
2022/06/19 01:19:43;;;;;;;4.20;2.00;;;;;;;16.65;64.95;99131.52;104701;1271;62799;-24
2022/06/19 01:22:49;;;;;;;4.60;1.80;;;;;;;16.49;65.96;99128.98;104926;1271;62842;-24
2022/06/19 01:25:18;;;;;;;2.70;2.10;;;;;;;16.30;66.66;99127.14;104564;1274;75626;-24
2022/06/19 01:30:35;;;;;;;2.20;1.60;;;;;;;16.23;67.03;99127.48;104721;1271;75558;-24
2022/06/19 01:33:04;;;;;;;3.20;1.60;;;;;;;16.82;65.51;99125.73;104804;1271;63070;-24
2022/06/19 01:35:34;;;;;;;2.10;1.70;;;;;;;17.30;64.45;99128.47;104624;1272;62918;-24
2022/06/19 01:38:11;;;;;;;2.40;1.50;;;;;;;17.37;64.17;99128.76;104908;1271;74297;-24
2022/06/19 01:40:39;;;;;;;2.60;1.90;;;;;;;17.21;63.98;99129.08;105068;1272;76965;-24
2022/06/19 01:43:06;;;;;;;3.10;1.90;;;;;;;17.06;64.43;99129.78;104638;1271;74084;-24
2022/06/19 01:45:35;;;;;;;2.10;1.70;;;;;;;16.93;64.25;99129.66;104692;1271;63433;-24
2022/06/19 01:48:03;;;;;;;2.40;1.80;;;;;;;16.79;64.50;99124.25;104682;1271;61595;-24
2022/06/19 01:50:30;;;;;;;2.10;1.80;;;;;;;16.67;64.81;99129.86;104712;1272;76566;-24
2022/06/19 01:53:23;;;;;;;4.40;1.90;;;;;;;16.55;65.35;99125.94;104763;1271;76731;-24
2022/06/19 01:55:50;;;;;;;2.30;1.80;;;;;;;16.42;66.01;99120.95;104812;1271;75386;-24
2022/06/19 01:58:18;;;;;;;2.30;1.80;;;;;;;16.33;66.15;99120.31;104670;1273;62864;-24
2022/06/19 02:00:48;;;;;;;3.50;1.30;;;;;;;16.29;66.64;99120.02;104855;1271;62054;-24
2022/06/19 02:03:52;;;;;;;3.70;1.60;;;;;;;16.85;65.22;99116.46;104965;1271;76666;-25
2022/06/19 02:06:19;;;;;;;;;;;;;;;17.52;63.47;99114.24;104549;1276;75094;-24
2022/06/19 02:08:47;;;;;;;2.10;1.60;;;;;;;17.57;62.85;99120.85;104757;1271;75829;-24
2022/06/19 02:11:15;;;;;;;2.50;1.90;;;;;;;17.49;63.08;99119.21;104866;1271;62092;-24
2022/06/19 02:13:43;;;;;;;4.00;2.10;;;;;;;17.35;63.39;99113.56;104705;1271;63046;-24
2022/06/19 02:16:15;;;;;;;1.90;1.60;;;;;;;17.18;63.83;99111.73;104804;1271;75565;-24
2022/06/19 02:18:45;;;;;;;2.80;1.70;;;;;;;17.01;63.87;99111.73;104653;1274;76795;-24
2022/06/19 02:21:22;;;;;;;2.30;1.60;;;;;;;16.85;64.53;99117.44;104757;1271;75776;-24
2022/06/19 02:23:49;;;;;;;2.70;1.80;;;;;;;16.70;65.27;99120.34;104584;1274;63248;-24
2022/06/19 02:26:16;;;;;;;1.90;1.70;;;;;;;16.55;66.00;99120.81;104645;1275;63106;-24
2022/06/19 02:28:46;;;;;;;3.40;1.60;;;;;;;16.41;66.14;99119.64;104706;1271;76518;-24
2022/06/19 02:31:13;;;;;;;2.20;1.40;;;;;;;16.30;66.83;99120.96;104608;1271;76249;-25
2022/06/19 02:33:43;;;;;;;3.60;1.60;;;;;;;16.72;65.71;99122.70;104620;1274;75226;-25
2022/06/19 02:36:37;;;;;;;3.00;2.30;;;;;;;17.13;64.55;99123.71;104625;1273;61744;-25
2022/06/19 02:39:34;;;;;;;2.40;1.70;;;;;;;17.20;64.26;99120.42;104815;1271;62893;-25
2022/06/19 02:42:16;;;;;;;4.70;2.20;;;;;;;17.13;64.69;99115.77;104771;1270;76587;-25
2022/06/19 02:44:44;;;;;;;2.90;1.60;;;;;;;17.21;64.22;99113.45;104650;1274;75006;-26
2022/06/19 02:47:11;;;;;;;2.70;1.90;;;;;;;17.27;64.17;99109.52;104732;1271;74727;-25
2022/06/19 02:49:39;;;;;;;2.70;1.80;;;;;;;17.28;64.29;99109.41;104801;1271;63095;-25
2022/06/19 02:52:07;;;;;;;3.20;2.00;;;;;;;17.32;64.20;99105.96;104849;1270;62815;-25
2022/06/19 02:54:34;;;;;;;3.60;1.40;;;;;;;17.51;64.32;99102.89;104878;1271;75288;-25
2022/06/19 02:57:02;;;;;;;2.60;1.30;;;;;;;18.26;64.22;99093.52;104763;1271;76765;-25
2022/06/19 02:59:29;;;;;;;2.20;1.30;;;;;;;19.12;62.38;99092.61;104627;1276;75154;-25
2022/06/19 03:01:56;;;;;;;2.60;1.70;;;;;;;19.49;60.88;99097.35;104774;1271;63255;-25
2022/06/19 03:04:26;;;;;;;3.30;1.60;;;;;;;19.50;60.25;99096.98;104751;1270;62988;-25
2022/06/19 03:06:54;;;;;;;3.40;1.80;;;;;;;19.43;59.78;99098.17;104812;1272;75958;-25
2022/06/19 03:09:22;;;;;;;1.80;1.50;;;;;;;19.13;59.22;99098.81;104785;1271;77015;-24
2022/06/19 03:11:50;;;;;;;2.20;1.50;;;;;;;18.91;59.48;99096.98;104872;1271;75322;-26
2022/06/19 03:14:17;;;;;;;4.30;1.70;;;;;;;18.63;60.25;99097.52;104868;1271;63052;-24
2022/06/19 03:16:48;;;;;;;2.10;1.70;;;;;;;18.45;60.72;99097.21;104809;1271;63016;-25
2022/06/19 03:19:15;;;;;;;2.10;1.70;;;;;;;18.45;60.89;99100.65;105151;1271;75487;-24
2022/06/19 03:21:42;;;;;;;2.40;1.70;;;;;;;18.57;60.72;99103.09;105015;1271;75783;-25
2022/06/19 03:24:10;;;;;;;4.20;1.60;;;;;;;18.68;60.39;99102.23;104793;1273;74234;-25
2022/06/19 03:26:38;;;;;;;3.70;1.80;;;;;;;18.65;60.10;99099.34;104673;1273;62255;-25
2022/06/19 03:29:05;;;;;;;1.90;1.60;;;;;;;18.64;60.29;99095.34;104659;1274;63441;-25
2022/06/19 03:31:32;;;;;;;2.30;1.60;;;;;;;18.71;60.13;99093.80;104711;1274;75369;-25
2022/06/19 03:34:00;;;;;;;2.10;1.70;;;;;;;18.73;60.00;99095.69;104704;1273;75991;-24
2022/06/19 03:36:27;;;;;;;3.50;1.80;;;;;;;18.64;60.57;99092.79;104898;1273;75525;-25
2022/06/19 03:38:54;;;;;;;3.90;2.10;;;;;;;18.70;60.43;99100.03;105023;1272;62767;-25
2022/06/19 03:41:21;;;;;;;4.70;2.00;;;;;;;18.76;60.29;99099.91;104656;1273;62094;-24
2022/06/19 03:43:49;;;;;;;3.00;1.90;;;;;;;18.73;60.51;99101.65;104610;1273;76219;-25
2022/06/19 03:46:17;;;;;;;3.30;1.90;;;;;;;18.76;60.78;99100.19;104673;1274;75647;-25
2022/06/19 03:48:47;;;;;;;4.50;1.90;;;;;;;18.83;60.49;99105.23;104325;1274;74349;-25
2022/06/19 03:51:16;;;;;;;2.60;1.80;;;;;;;18.86;60.67;99101.20;104656;1271;62954;-25
2022/06/19 03:53:45;;;;;;;2.30;1.90;;;;;;;18.83;60.84;99100.86;104589;1274;61877;-25
2022/06/19 03:56:21;;;;;;;2.80;1.80;;;;;;;18.90;60.46;99099.39;104534;1276;75506;-25
2022/06/19 03:58:48;;;;;;;2.80;1.80;;;;;;;18.94;60.12;99102.27;104705;1274;77443;-25
2022/06/19 04:01:31;;;;;;;3.00;1.80;;;;;;;19.04;60.30;99098.46;104753;1272;74322;-25
2022/06/19 04:03:58;;;;;;;2.30;1.80;;;;;;;18.96;60.33;99102.67;104714;1271;63258;-25
2022/06/19 04:06:30;;;;;;;3.90;2.10;;;;;;;18.97;60.64;99107.04;104841;1271;61975;-25
2022/06/19 04:08:58;;;;;;;3.70;1.70;;;;;;;19.05;60.63;99107.94;104656;1271;75659;-25
2022/06/19 04:11:26;;;;;;;2.10;1.90;;;;;;;19.09;60.61;99108.80;104726;1274;76741;-25
2022/06/19 04:13:54;;;;;;;2.20;1.70;;;;;;;19.14;61.12;99104.34;104666;1274;75552;-25
2022/06/19 04:16:23;;;;;;;3.00;1.90;;;;;;;19.20;60.46;99103.94;104544;1274;61941;-25
2022/06/19 04:18:51;;;;;;;2.10;1.70;;;;;;;19.46;60.19;99101.52;104544;1274;62123;-25
2022/06/19 04:21:23;;;;;;;3.10;1.60;;;;;;;19.69;59.43;99106.08;104663;1272;75425;-25
2022/06/19 04:23:53;;;;;;;2.80;1.80;;;;;;;19.61;59.41;99109.92;104617;1274;74872;-25
2022/06/19 04:26:21;;;;;;;2.20;1.60;;;;;;;19.89;59.75;99110.38;104606;1272;75452;-25
2022/06/19 04:28:48;;;;;;;2.70;1.80;;;;;;;20.00;59.26;99112.60;104705;1272;62338;-25
2022/06/19 04:31:16;;;;;;;2.00;1.50;;;;;;;20.08;58.57;99114.31;104762;1274;61966;-25
2022/06/19 04:33:44;;;;;;;2.60;1.80;;;;;;;20.10;58.45;99119.18;104706;1271;76377;-25
2022/06/19 04:36:13;;;;;;;4.10;2.00;;;;;;;19.99;59.01;99119.29;104282;1274;417492;-25
2022/06/19 04:38:41;;;;;;;2.50;1.60;;;;;;;20.11;59.31;99121.71;104722;1271;73139;-25
2022/06/19 04:41:33;;;;;;;2.50;1.80;;;;;;;20.42;58.23;99123.77;104703;1271;61873;-25
2022/06/19 04:44:00;;;;;;;11.20;2.20;;;;;;;20.64;56.84;99124.23;104605;1271;63065;-23
2022/06/19 04:46:27;;;;;;;3.80;1.70;;;;;;;20.80;56.91;99127.69;104719;1271;75617;-25
2022/06/19 04:48:56;;;;;;;2.20;1.50;;;;;;;20.94;56.13;99124.11;104952;1274;76982;-24
2022/06/19 04:51:24;;;;;;;4.00;1.60;;;;;;;21.09;55.49;99126.67;104661;1273;75370;-25
2022/06/19 04:53:53;;;;;;;1.90;1.50;;;;;;;21.09;54.91;99125.86;104713;1272;62770;-25
2022/06/19 04:56:20;;;;;;;2.30;1.60;;;;;;;21.19;54.67;99130.29;104737;1272;61089;-25
2022/06/19 04:58:49;;;;;;;3.50;1.50;;;;;;;21.29;53.90;99127.55;104707;1274;76713;-25
2022/06/19 05:01:24;;;;;;;2.60;1.40;;;;;;;21.46;53.62;99129.41;104611;1275;77063;-25
2022/06/19 05:03:53;;;;;;;3.10;1.20;;;;;;;21.58;53.30;99133.48;104701;1272;75097;-24
2022/06/19 05:06:20;;;;;;;3.40;1.30;;;;;;;21.58;52.00;99135.02;104614;1273;61820;-24
2022/06/19 05:08:48;;;;;;;1.60;1.30;;;;;;;21.60;51.23;99136.76;104732;1272;61759;-24
2022/06/19 05:11:16;;;;;;;2.10;1.20;;;;;;;21.69;52.55;99138.69;104726;1274;75503;-24
2022/06/19 05:13:43;;;;;;;3.00;1.40;;;;;;;21.77;51.30;99135.37;104699;1274;75225;-25
2022/06/19 05:16:13;;;;;;;2.70;1.50;;;;;;;21.78;50.59;99136.52;104644;1271;75471;-24
2022/06/19 05:18:41;;;;;;;2.40;1.30;;;;;;;21.85;51.75;99142.98;104582;1274;61531;-25
2022/06/19 05:21:09;;;;;;;2.20;1.20;;;;;;;21.98;50.44;99142.39;104646;1271;63092;-25
2022/06/19 05:23:41;;;;;;;1.80;1.50;;;;;;;22.03;50.24;99141.11;104684;1272;76658;-24
2022/06/19 05:26:16;;;;;;;1.40;1.30;;;;;;;22.05;50.91;99137.89;104723;1271;75876;-25
2022/06/19 05:28:44;;;;;;;5.30;1.40;;;;;;;22.02;50.26;99137.02;104911;1270;73317;-25
2022/06/19 05:31:12;;;;;;;1.40;1.20;;;;;;;22.14;50.42;99129.12;104711;1272;61272;-25
2022/06/19 05:33:39;;;;;;;2.40;1.30;;;;;;;22.33;50.93;99134.11;104772;1271;61807;-25
2022/06/19 05:36:06;;;;;;;3.10;1.40;;;;;;;22.46;48.32;99128.05;104860;1271;76699;-24
2022/06/19 05:38:34;;;;;;;3.20;1.60;;;;;;;22.52;47.96;99132.27;104775;1271;75895;-25
2022/06/19 05:41:01;;;;;;;2.00;1.40;;;;;;;22.63;47.99;99129.67;104825;1271;75435;-25
2022/06/19 05:43:30;;;;;;;2.00;1.30;;;;;;;22.64;48.06;99128.48;104669;1274;62907;-25
2022/06/19 05:46:02;;;;;;;1.60;1.10;;;;;;;22.71;48.56;99126.77;104694;1274;62534;-24
2022/06/19 05:48:30;;;;;;;3.40;1.50;;;;;;;22.76;47.45;99130.17;104849;1274;76489;-25
2022/06/19 05:51:05;;;;;;;2.50;1.20;;;;;;;22.80;47.66;99128.66;104994;1270;75718;-24
2022/06/19 05:53:34;;;;;;;1.70;1.10;;;;;;;22.97;48.47;99125.08;104902;1271;73449;-23
2022/06/19 05:56:01;;;;;;;1.90;1.20;;;;;;;22.93;47.35;99118.71;104992;1272;61738;-23
2022/06/19 05:58:29;;;;;;;3.20;1.30;;;;;;;23.00;46.80;99121.28;104911;1272;61742;-24
2022/06/19 06:00:56;;;;;;;1.40;1.20;;;;;;;23.08;46.60;99122.82;104860;1271;75411;-23
2022/06/19 06:03:57;;;;;;;3.40;1.40;;;;;;;23.14;46.11;99118.58;101552;1310;600821;-23
2022/06/19 06:06:27;;;;;;;3.30;1.30;;;;;;;23.18;45.53;99118.84;104445;1281;63310;-23
2022/06/19 06:08:55;;;;;;;2.40;1.30;;;;;;;23.23;46.01;99117.37;104412;1281;61184;-24
2022/06/19 06:11:22;;;;;;;1.80;1.30;;;;;;;23.37;45.94;99115.85;104421;1283;73932;-23
2022/06/19 06:13:50;;;;;;;3.40;1.10;;;;;;;23.49;46.44;99110.94;104386;1283;76933;-23
2022/06/19 06:16:18;;;;;;;2.90;1.30;;;;;;;23.42;46.34;99110.27;104259;1283;75338;-23
2022/06/19 06:18:46;;;;;;;1.60;1.10;;;;;;;23.57;45.04;99110.40;104082;1280;486770;-22
2022/06/19 06:21:15;;;;;;;2.30;1.10;;;;;;;23.47;44.96;99111.23;104725;1274;61911;-22
2022/06/19 06:23:42;;;;;;;3.40;1.20;;;;;;;23.49;44.06;99111.06;104702;1275;75000;-23
2022/06/19 06:26:18;;;;;;;1.70;1.30;;;;;;;23.58;44.88;99111.16;104718;1275;76619;-22
2022/06/19 06:28:47;;;;;;;4.10;1.10;;;;;;;23.75;45.65;99110.70;104621;1275;75154;-22
2022/06/19 06:31:14;;;;;;;2.90;1.20;;;;;;;23.94;45.21;99106.62;104313;1274;62760;-23
2022/06/19 06:33:42;;;;;;;1.60;1.10;;;;;;;23.98;44.86;99105.64;104655;1276;62920;-22
2022/06/19 06:36:10;;;;;;;1.80;1.30;;;;;;;24.07;44.38;99100.95;104748;1275;75787;-23
2022/06/19 06:38:37;;;;;;;2.90;1.10;;;;;;;24.01;42.78;99095.23;104762;1275;76770;-22
2022/06/19 06:41:05;;;;;;;2.50;1.20;;;;;;;23.90;43.66;99094.61;104651;1275;74688;-24
2022/06/19 06:43:35;;;;;;;2.00;1.30;;;;;;;24.06;43.43;99093.30;104823;1274;62002;-25
2022/06/19 06:46:06;;;;;;;2.00;1.20;;;;;;;24.09;42.54;99084.98;104478;1273;61873;-24
2022/06/19 06:48:34;;;;;;;1.90;1.20;;;;;;;24.16;43.19;99094.11;104595;1274;75724;-25
2022/06/19 06:51:23;;;;;;;1.80;1.10;;;;;;;24.19;43.47;99092.16;104422;1273;76972;-23
2022/06/19 06:53:50;;;;;;;1.30;1.10;;;;;;;24.01;42.57;99086.89;104479;1275;75608;-23
2022/06/19 06:56:18;;;;;;;2.00;1.10;;;;;;;23.97;43.11;99087.40;104265;1277;62126;-23
2022/06/19 06:58:46;;;;;;;2.70;1.20;;;;;;;24.21;43.44;99084.71;104527;1274;62031;-23
2022/06/19 07:01:18;;;;;;;3.00;1.10;;;;;;;24.50;41.94;99085.91;104365;1275;73660;-23
2022/06/19 07:03:47;;;;;;;2.10;1.20;;;;;;;24.57;41.38;99091.31;104323;1274;75384;-23
2022/06/19 07:06:15;;;;;;;2.90;1.30;;;;;;;24.55;41.96;99091.16;104312;1274;75738;-23
2022/06/19 07:08:42;;;;;;;1.20;0.90;;;;;;;24.70;42.32;99090.05;104520;1275;62104;-23
2022/06/19 07:11:14;;;;;;;1.70;1.20;;;;;;;24.82;42.10;99084.39;104666;1274;62009;-23
2022/06/19 07:13:43;;;;;;;5.20;1.20;;;;;;;24.54;40.87;99085.07;104528;1275;73872;-24
2022/06/19 07:16:10;;;;;;;1.30;1.00;;;;;;;24.40;41.40;99082.51;104676;1276;77165;-23
2022/06/19 07:18:38;;;;;;;1.70;1.20;;;;;;;24.50;41.76;99085.83;104560;1278;74334;-23
2022/06/19 07:21:05;;;;;;;1.40;1.10;;;;;;;24.78;40.47;99083.14;104362;1275;63402;-23
2022/06/19 07:23:34;;;;;;;6.60;1.30;;;;;;;24.64;41.13;99087.20;104689;1275;61893;-23
2022/06/19 07:26:01;;;;;;;1.20;1.10;;;;;;;24.78;41.62;99084.58;104432;1276;74594;-24
2022/06/19 07:28:28;;;;;;;1.10;0.90;;;;;;;24.99;41.30;99081.91;104677;1274;74948;-23
2022/06/19 07:30:55;;;;;;;1.60;1.10;;;;;;;25.03;41.56;99079.65;104557;1274;75387;-23
2022/06/19 07:33:23;;;;;;;4.80;1.30;;;;;;;25.12;41.00;99076.67;104601;1275;63031;-23
2022/06/19 07:35:50;;;;;;;1.40;1.10;;;;;;;25.07;39.96;99078.44;104665;1276;62990;-23
2022/06/19 07:38:17;;;;;;;2.40;1.00;;;;;;;25.11;39.75;99081.73;104655;1276;75499;-23
2022/06/19 07:40:45;;;;;;;2.80;1.20;;;;;;;24.92;39.56;99081.77;104703;1275;76747;-23
2022/06/19 07:43:14;;;;;;;1.60;1.00;;;;;;;25.25;39.71;99082.81;104671;1275;73062;-23
2022/06/19 07:45:42;;;;;;;1.60;1.00;;;;;;;25.23;39.42;99084.39;104636;1276;63176;-23
2022/06/19 07:50:57;;;;;;;1.50;0.90;;;;;;;24.94;38.68;99077.04;104434;1274;75960;-23
2022/06/19 07:53:24;;;;;;;2.00;1.00;;;;;;;25.02;37.71;99078.27;104684;1276;77160;-24
2022/06/19 07:55:51;;;;;;;2.70;0.90;;;;;;;25.04;37.55;99073.14;104551;1275;75707;-23
2022/06/19 07:58:18;;;;;;;3.20;1.20;;;;;;;24.91;38.00;99062.77;104396;1276;62044;-23
2022/06/19 08:00:46;;;;;;;3.50;1.10;;;;;;;25.26;39.08;99058.17;104673;1275;63289;-23
2022/06/19 08:03:13;;;;;;;1.80;0.90;;;;;;;25.51;38.21;99060.08;104784;1274;75775;-23
2022/06/19 08:05:46;;;;;;;2.00;1.00;;;;;;;25.76;38.60;99065.10;104604;1274;76986;-24
2022/06/19 08:08:24;;;;;;;3.10;1.40;;;;;;;25.87;37.75;99064.37;104569;1274;75380;-23
2022/06/19 08:10:53;;;;;;;2.50;1.10;;;;;;;25.91;37.87;99067.48;104505;1274;61873;-23
2022/06/19 08:13:22;;;;;;;2.90;1.00;;;;;;;25.96;38.19;99076.14;104468;1275;62132;-23
2022/06/19 08:15:50;;;;;;;2.30;1.30;;;;;;;25.91;38.38;99068.58;104364;1274;74696;-24
2022/06/19 08:18:18;;;;;;;2.60;1.20;;;;;;;26.03;37.82;99066.88;104532;1274;75950;-23
2022/06/19 08:20:47;;;;;;;3.20;1.20;;;;;;;25.99;38.17;99067.09;104654;1274;75412;-23
2022/06/19 08:23:14;;;;;;;2.00;1.20;;;;;;;26.08;37.51;99067.20;104253;1277;61921;-23
2022/06/19 08:25:41;;;;;;;2.70;1.50;;;;;;;26.02;38.43;99057.20;104523;1274;62047;-22
2022/06/19 08:28:09;;;;;;;1.60;1.10;;;;;;;26.25;38.09;99045.81;104491;1277;75792;-23
2022/06/19 08:30:39;;;;;;;2.00;1.10;;;;;;;26.13;37.01;99048.85;104555;1277;74952;-23
2022/06/19 08:33:07;;;;;;;3.50;1.10;;;;;;;26.09;37.39;99050.95;104355;1277;75425;-23
2022/06/19 08:35:37;;;;;;;2.70;1.10;;;;;;;26.10;36.39;99047.16;104490;1277;61061;-23
2022/06/19 08:38:10;;;;;;;2.50;1.40;;;;;;;25.80;37.07;99044.98;104416;1274;63198;-23
2022/06/19 08:41:07;;;;;;;2.60;1.20;;;;;;;26.08;38.55;99046.65;104665;1274;74729;-23
2022/06/19 08:43:49;;;;;;;2.70;1.20;;;;;;;26.52;36.38;99043.58;104402;1274;76991;-23
2022/06/19 08:46:19;;;;;;;3.40;1.10;;;;;;;26.55;37.18;99043.82;104644;1274;75314;-23
2022/06/19 08:49:07;;;;;;;2.80;1.20;;;;;;;26.87;37.15;99045.91;104656;1277;61025;-23
2022/06/19 08:51:41;;;;;;;3.90;1.30;;;;;;;26.99;37.20;99047.46;104590;1277;61826;-23
2022/06/19 08:54:34;;;;;;;1.40;0.90;;;;;;;26.86;36.19;99042.05;104667;1277;74861;-23
2022/06/19 08:57:14;;;;;;;12.60;1.30;;;;;;;26.93;36.94;99047.29;104765;1274;76028;-23
2022/06/19 08:59:45;;;;;;;2.10;1.00;;;;;;;27.25;36.04;99040.33;104807;1274;74708;-23
2022/06/19 09:02:16;;;;;;;2.40;1.20;;;;;;;27.44;35.94;99037.11;104935;1271;62312;-23
2022/06/19 09:05:46;;;;;;;2.60;1.50;;;;;;;27.05;35.31;99035.20;104728;1274;62819;-23
2022/06/19 09:08:17;;;;;;;1.60;0.90;;;;;;;26.46;35.07;99028.45;104732;1272;75829;-23
2022/06/19 09:11:03;;;;;;;1.60;1.10;;;;;;;26.44;36.11;99033.00;104964;1274;77027;-23
2022/06/19 09:13:49;;;;;;;2.60;1.10;;;;;;;26.57;35.57;99031.06;105053;1274;74478;-23
2022/06/19 09:16:39;;;;;;;1.40;1.20;;;;;;;26.88;36.48;99030.78;104894;1274;62057;-23
2022/06/19 09:19:20;;;;;;;3.60;1.10;;;;;;;26.64;36.08;99024.63;104856;1271;62573;-23
2022/06/19 09:22:29;;;;;;;2.50;1.20;;;;;;;26.93;36.10;99027.28;104877;1272;74541;-23
2022/06/19 09:25:21;;;;;;;1.10;1.00;;;;;;;26.76;36.70;99028.45;105153;1271;75959;-23
2022/06/19 09:28:25;;;;;;;1.40;0.90;;;;;;;27.03;37.96;99030.30;105081;1271;75541;-23
2022/06/19 09:30:54;;;;;;;;;;;;;;;27.38;35.48;99024.01;104764;1272;62632;-23
2022/06/19 09:34:01;;;;;;;2.10;1.30;;;;;;;27.52;35.48;99022.11;104941;1274;61812;-23
2022/06/19 09:36:40;;;;;;;3.40;1.10;;;;;;;27.73;35.44;99021.02;104879;1274;75606;-23
2022/06/19 09:39:10;;;;;;;3.90;1.00;;;;;;;27.83;35.02;99021.91;104790;1274;77375;-23
2022/06/19 09:41:47;;;;;;;3.00;1.00;;;;;;;27.81;35.13;99023.96;104987;1271;73597;-23
2022/06/19 09:44:43;;;;;;;1.50;1.00;;;;;;;27.98;34.95;99023.14;105100;1271;62048;-23
2022/06/19 09:47:19;;;;;;;1.60;1.20;;;;;;;28.06;34.43;99021.94;104986;1274;61138;-23
2022/06/19 09:50:01;;;;;;;4.80;1.30;;;;;;;27.99;33.93;99028.61;104651;1271;74657;-24
2022/06/19 09:52:38;;;;;;;2.40;1.10;;;;;;;28.00;34.59;99022.85;104659;1271;77100;-23
2022/06/19 09:55:32;;;;;;;3.00;1.10;;;;;;;28.08;35.19;99025.71;104728;1271;74285;-23
2022/06/19 09:58:04;;;;;;;1.50;0.90;;;;;;;28.05;33.50;99030.77;105096;1271;62050;-23
2022/06/19 10:00:34;;;;;;;2.70;1.10;;;;;;;27.99;34.61;99029.52;104777;1275;62980;-23
2022/06/19 10:03:26;;;;;;;3.10;0.90;;;;;;;28.11;34.92;99031.09;104765;1271;75561;-23
2022/06/19 10:06:14;;;;;;;1.40;1.10;;;;;;;28.25;34.26;99031.77;104950;1272;75996;-23
2022/06/19 10:09:10;;;;;;;2.50;1.00;;;;;;;28.29;34.56;99034.81;104914;1271;74418;-23
2022/06/19 10:11:39;;;;;;;1.10;0.90;;;;;;;28.31;33.59;99034.98;104684;1273;62251;-23
2022/06/19 10:14:16;;;;;;;3.90;0.90;;;;;;;28.31;34.30;99030.52;104682;1273;62738;-23
2022/06/19 10:16:52;;;;;;;1.60;1.20;;;;;;;28.54;34.37;99014.16;104640;1273;74590;-23
2022/06/19 10:19:22;;;;;;;2.10;1.10;;;;;;;28.60;33.95;99017.16;104965;1273;77112;-23
2022/06/19 10:22:15;;;;;;;4.40;1.30;;;;;;;28.42;33.63;99020.30;104818;1273;75460;-23
2022/06/19 10:25:17;;;;;;;1.80;1.10;;;;;;;28.46;33.94;99021.06;105019;1271;63071;-23
2022/06/19 10:28:10;;;;;;;2.70;1.20;;;;;;;28.67;33.22;99016.84;105099;1271;62021;-23
2022/06/19 10:30:47;;;;;;;2.50;0.90;;;;;;;28.73;33.34;99019.97;104743;1273;76768;-23
2022/06/19 10:33:57;;;;;;;3.70;1.00;;;;;;;28.81;32.64;99012.13;104701;1271;76893;-23
2022/06/19 10:36:30;;;;;;;2.60;0.90;;;;;;;28.60;33.14;99009.93;104909;1271;74308;-23
2022/06/19 10:38:59;;;;;;;2.10;1.20;;;;;;;28.62;32.51;99014.30;104736;1273;62743;-23
2022/06/19 10:42:06;;;;;;;1.00;0.90;;;;;;;28.72;33.03;99015.08;105089;1271;62164;-23
2022/06/19 10:44:49;;;;;;;3.70;1.00;;;;;;;28.58;33.81;99019.48;105046;1273;76829;-23
2022/06/19 10:47:32;;;;;;;;;;;;;;;29.07;33.36;99004.98;104908;1273;76907;-23
2022/06/19 10:50:17;;;;;;;4.70;0.90;;;;;;;29.05;32.77;99010.04;104620;1273;75521;-23
2022/06/19 10:53:12;;;;;;;3.10;1.20;;;;;;;29.01;31.60;99009.14;104955;1273;62105;-24
2022/06/19 10:56:12;;;;;;;6.50;1.20;;;;;;;28.71;33.10;99005.05;105116;1272;62005;-24
2022/06/19 10:58:40;;;;;;;2.00;1.30;;;;;;;29.13;34.01;99003.39;104486;1271;75599;-24
2022/06/19 11:01:09;;;;;;;2.90;0.90;;;;;;;29.26;32.07;98996.62;105085;1273;76250;-24
2022/06/19 11:06:38;;;;;;;3.50;1.10;;;;;;;29.18;33.04;98991.92;104638;1271;62551;-24
2022/06/19 11:09:38;;;;;;;1.40;0.70;;;;;;;29.28;32.91;98990.41;104672;1271;61952;-24
2022/06/19 11:12:37;;;;;;;2.40;0.90;;;;;;;29.05;33.09;98987.99;104607;1271;75749;-24
2022/06/19 11:15:25;;;;;;;5.20;1.10;;;;;;;29.05;34.05;98983.30;104936;1271;75468;-24
2022/06/19 11:18:17;;;;;;;0.90;0.70;;;;;;;29.27;33.04;98979.69;104789;1272;73936;-24
2022/06/19 11:21:01;;;;;;;1.70;0.90;;;;;;;29.29;33.78;98977.15;105096;1271;61813;-24
2022/06/19 11:23:32;;;;;;;2.80;1.00;;;;;;;29.17;32.60;98981.45;105013;1271;61310;-25
2022/06/19 11:26:21;;;;;;;2.30;1.00;;;;;;;29.32;32.91;98984.48;104675;1274;76319;-24
2022/06/19 11:29:01;;;;;;;1.50;0.90;;;;;;;29.51;32.55;98978.22;105003;1271;76167;-24
2022/06/19 11:31:33;;;;;;;1.80;0.80;;;;;;;29.12;32.35;98970.35;104715;1274;74087;-24
2022/06/19 11:37:28;;;;;;;1.20;0.80;;;;;;;28.59;34.36;98971.77;104606;1274;63189;-24
2022/06/19 11:39:58;;;;;;;3.10;1.00;;;;;;;28.79;34.19;98968.73;105065;1271;75435;-23
2022/06/19 11:42:26;;;;;;;2.10;1.00;;;;;;;28.68;33.41;98968.20;105106;1271;77094;-24
2022/06/19 11:45:15;;;;;;;2.00;0.70;;;;;;;28.67;34.37;98962.77;104929;1272;74111;-23
2022/06/19 11:47:44;;;;;;;3.40;1.00;;;;;;;28.73;34.40;98961.04;104943;1272;62561;-23
2022/06/19 11:50:23;;;;;;;2.70;0.90;;;;;;;28.48;33.60;98960.38;104787;1271;62757;-24
2022/06/19 11:53:06;;;;;;;2.80;1.00;;;;;;;28.41;33.93;98955.89;105036;1271;76274;-24
2022/06/19 11:55:42;;;;;;;3.70;1.20;;;;;;;28.35;33.85;98958.15;105008;1271;77166;-23
2022/06/19 11:58:20;;;;;;;3.00;0.90;;;;;;;28.75;34.10;98953.63;104766;1272;75132;-23
2022/06/19 12:01:15;;;;;;;1.70;0.70;;;;;;;28.81;33.96;98954.85;104751;1271;62112;-23
2022/06/19 12:03:47;;;;;;;3.10;0.90;;;;;;;28.94;33.26;98954.70;105100;1272;62426;-23
2022/06/19 12:06:16;;;;;;;1.70;0.90;;;;;;;28.85;33.76;98951.04;104948;1271;75440;-23
2022/06/19 12:09:00;;;;;;;2.40;1.30;;;;;;;29.08;33.19;98952.02;105012;1273;77122;-23